createdAt,value
2019-03-02T00:00:16.472Z,10.90
2019-03-02T00:01:16.523Z,11.20
2019-03-02T00:02:16.393Z,10.90
2019-03-02T00:03:16.452Z,11.30
2019-03-02T00:04:16.652Z,10.90
2019-03-02T00:05:16.899Z,11.10
2019-03-02T00:06:17.190Z,11.10
2019-03-02T00:07:17.099Z,10.70
2019-03-02T00:08:17.334Z,10.50
2019-03-02T00:09:17.748Z,11.40
2019-03-02T00:10:17.612Z,11.40
2019-03-02T00:11:20.463Z,11.60
2019-03-02T00:12:17.920Z,11.10
2019-03-02T00:13:18.030Z,11.50
2019-03-02T00:14:19.261Z,10.70
2019-03-02T00:15:18.213Z,10.90
2019-03-02T00:16:18.451Z,10.70
2019-03-02T00:17:19.031Z,11.10
2019-03-02T00:18:18.766Z,11.00
2019-03-02T00:19:18.902Z,10.90
2019-03-02T00:20:19.262Z,11.90
2019-03-02T00:21:19.355Z,10.80
2019-03-02T00:22:19.379Z,10.80
2019-03-02T00:23:19.790Z,11.20
2019-03-02T00:24:19.678Z,10.60
2019-03-02T00:25:19.855Z,10.00
2019-03-02T00:26:20.078Z,11.10
2019-03-02T00:27:21.241Z,10.40
2019-03-02T00:28:20.399Z,10.70
2019-03-02T00:29:20.502Z,11.10
2019-03-02T00:30:21.133Z,10.90
2019-03-02T00:31:20.917Z,10.80
2019-03-02T00:32:21.140Z,11.10
2019-03-02T00:33:21.263Z,11.00
2019-03-02T00:34:21.348Z,11.10
2019-03-02T00:35:21.537Z,11.30
2019-03-02T00:36:21.744Z,11.50
2019-03-02T00:37:21.985Z,10.80
2019-03-02T00:38:22.099Z,11.50
2019-03-02T00:39:22.210Z,11.30
2019-03-02T00:40:22.418Z,12.30
2019-03-02T00:41:22.495Z,11.40
2019-03-02T00:42:22.681Z,11.10
2019-03-02T00:43:23.656Z,12.00
2019-03-02T00:44:23.075Z,11.10
2019-03-02T00:45:23.255Z,11.30
2019-03-02T00:46:23.852Z,10.80
2019-03-02T00:47:23.594Z,11.50
2019-03-02T00:48:23.675Z,10.90
2019-03-02T00:49:23.872Z,11.10
2019-03-02T00:50:24.130Z,10.70
2019-03-02T00:51:24.180Z,11.20
2019-03-02T00:52:24.409Z,11.00
2019-03-02T00:53:24.625Z,10.60
2019-03-02T00:54:24.736Z,10.70
2019-03-02T00:55:24.847Z,10.90
2019-03-02T00:56:24.934Z,9.80
2019-03-02T00:57:25.181Z,10.90
2019-03-02T00:58:25.660Z,11.00
2019-03-02T00:59:25.467Z,10.30
2019-03-02T01:00:25.663Z,10.60
2019-03-02T01:01:28.681Z,11.00
2019-03-02T01:02:26.036Z,11.00
2019-03-02T01:03:26.128Z,11.10
2019-03-02T01:04:26.911Z,10.70
2019-03-02T01:05:26.417Z,11.10
2019-03-02T01:06:26.647Z,10.40
2019-03-02T01:07:26.742Z,11.10
2019-03-02T01:08:26.940Z,10.70
2019-03-02T01:09:27.138Z,10.90
2019-03-02T01:10:27.379Z,10.90
2019-03-02T01:11:29.501Z,10.50
2019-03-02T01:12:27.671Z,11.10
2019-03-02T01:13:27.876Z,10.70
2019-03-02T01:14:28.736Z,10.50
2019-03-02T01:15:28.281Z,9.90
2019-03-02T01:16:28.463Z,10.40
2019-03-02T01:17:30.777Z,9.90
2019-03-02T01:18:28.844Z,10.50
2019-03-02T01:19:29.075Z,10.40
2019-03-02T01:20:29.945Z,11.00
2019-03-02T01:21:29.372Z,11.30
2019-03-02T01:22:29.442Z,11.10
2019-03-02T01:23:29.657Z,10.60
2019-03-02T01:24:29.837Z,11.60
2019-03-02T01:25:30.083Z,10.90
2019-03-02T01:26:30.168Z,11.40
2019-03-02T01:27:31.743Z,11.40
2019-03-02T01:28:30.560Z,11.00
2019-03-02T01:29:30.734Z,10.60
2019-03-02T01:30:31.022Z,12.60
2019-03-02T01:31:31.027Z,11.80
2019-03-02T01:32:31.234Z,11.80
2019-03-02T01:33:31.451Z,12.50
2019-03-02T01:34:31.679Z,12.10
2019-03-02T01:35:31.765Z,11.80
2019-03-02T01:36:32.262Z,12.30
2019-03-02T01:37:32.090Z,11.70
2019-03-02T01:38:32.173Z,11.20
2019-03-02T01:39:32.370Z,11.50
2019-03-02T01:40:32.584Z,11.50
2019-03-02T01:41:32.770Z,11.60
2019-03-02T01:42:32.963Z,12.80
2019-03-02T01:43:33.156Z,13.80
2019-03-02T01:44:33.401Z,13.30
2019-03-02T01:45:33.457Z,13.30
2019-03-02T01:46:33.695Z,13.00
2019-03-02T01:47:33.899Z,14.80
2019-03-02T01:48:34.095Z,14.90
2019-03-02T01:49:36.633Z,14.10
2019-03-02T01:50:34.497Z,14.30
2019-03-02T01:51:34.703Z,14.30
2019-03-02T01:52:35.286Z,14.00
2019-03-02T01:53:35.098Z,14.80
2019-03-02T01:54:35.293Z,14.70
2019-03-02T01:55:35.485Z,14.00
2019-03-02T01:56:37.796Z,14.00
2019-03-02T01:57:35.881Z,13.80
2019-03-02T01:58:36.084Z,13.90
2019-03-02T01:59:38.723Z,13.60
2019-03-02T02:00:36.522Z,13.70
2019-03-02T02:01:36.704Z,15.00
2019-03-02T02:02:37.246Z,13.20
2019-03-02T02:03:37.122Z,13.70
2019-03-02T02:04:37.221Z,13.30
2019-03-02T02:05:37.311Z,13.80
2019-03-02T02:06:39.857Z,14.20
2019-03-02T02:07:37.624Z,13.80
2019-03-02T02:08:37.727Z,14.40
2019-03-02T02:09:40.519Z,13.30
2019-03-02T02:10:39.941Z,14.40
2019-03-02T02:11:38.161Z,13.70
2019-03-02T02:12:38.403Z,13.40
2019-03-02T02:13:38.955Z,13.90
2019-03-02T02:14:38.731Z,13.60
2019-03-02T02:15:38.838Z,13.10
2019-03-02T02:16:41.817Z,14.00
2019-03-02T02:17:39.137Z,14.20
2019-03-02T02:18:39.186Z,13.60
2019-03-02T02:19:39.640Z,13.70
2019-03-02T02:20:39.594Z,13.30
2019-03-02T02:21:39.815Z,13.90
2019-03-02T02:22:39.866Z,13.90
2019-03-02T02:23:40.115Z,14.10
2019-03-02T02:24:40.166Z,12.80
2019-03-02T02:25:40.371Z,13.10
2019-03-02T02:26:43.871Z,13.00
2019-03-02T02:27:40.705Z,14.10
2019-03-02T02:28:40.790Z,13.70
2019-03-02T02:29:43.494Z,13.80
2019-03-02T02:30:41.170Z,13.50
2019-03-02T02:31:45.074Z,13.00
2019-03-02T02:32:41.613Z,13.60
2019-03-02T02:33:43.218Z,13.70
2019-03-02T02:34:41.915Z,12.60
2019-03-02T02:35:41.998Z,12.40
2019-03-02T02:36:42.218Z,12.70
2019-03-02T02:37:42.308Z,14.00
2019-03-02T02:38:42.519Z,13.10
2019-03-02T02:39:42.739Z,13.60
2019-03-02T02:40:42.952Z,13.70
2019-03-02T02:41:43.135Z,13.20
2019-03-02T02:42:44.824Z,13.60
2019-03-02T02:43:43.528Z,13.30
2019-03-02T02:44:43.722Z,13.60
2019-03-02T02:45:43.928Z,12.90
2019-03-02T02:46:44.118Z,12.70
2019-03-02T02:47:50.558Z,12.90
2019-03-02T02:48:44.511Z,12.40
2019-03-02T02:49:49.160Z,13.40
2019-03-02T02:50:44.819Z,13.00
2019-03-02T02:51:49.425Z,12.50
2019-03-02T02:52:45.225Z,13.50
2019-03-02T02:53:47.031Z,13.20
2019-03-02T02:54:45.661Z,12.90
2019-03-02T02:55:45.737Z,13.00
2019-03-02T02:56:45.959Z,12.50
2019-03-02T02:57:46.193Z,13.00
2019-03-02T02:58:46.279Z,12.50
2019-03-02T02:59:46.506Z,12.50
2019-03-02T03:00:50.309Z,12.60
2019-03-02T03:01:46.766Z,12.50
2019-03-02T03:02:46.995Z,12.70
2019-03-02T03:03:47.108Z,12.50
2019-03-02T03:04:47.191Z,12.70
2019-03-02T03:05:49.324Z,11.90
2019-03-02T03:06:47.596Z,13.00
2019-03-02T03:07:53.517Z,12.20
2019-03-02T03:08:47.968Z,12.40
2019-03-02T03:09:49.428Z,12.50
2019-03-02T03:10:48.277Z,12.40
2019-03-02T03:11:48.373Z,12.50
2019-03-02T03:12:48.545Z,12.00
2019-03-02T03:13:48.743Z,12.80
2019-03-02T03:14:48.986Z,12.30
2019-03-02T03:15:49.062Z,12.50
2019-03-02T03:16:49.402Z,12.20
2019-03-02T03:17:49.440Z,11.40
2019-03-02T03:18:52.230Z,12.30
2019-03-02T03:19:49.812Z,12.20
2019-03-02T03:20:50.703Z,12.10
2019-03-02T03:21:50.199Z,12.30
2019-03-02T03:22:50.403Z,12.50
2019-03-02T03:23:50.601Z,10.70
2019-03-02T03:24:50.825Z,11.80
2019-03-02T03:25:56.454Z,11.80
2019-03-02T03:26:51.094Z,11.30
2019-03-02T03:27:51.768Z,11.20
2019-03-02T03:28:51.441Z,11.50
2019-03-02T03:29:51.501Z,11.80
2019-03-02T03:30:51.684Z,11.60
2019-03-02T03:31:51.911Z,11.60
2019-03-02T03:32:56.150Z,11.40
2019-03-02T03:33:52.333Z,11.90
2019-03-02T03:34:52.563Z,11.30
2019-03-02T03:35:56.076Z,11.30
2019-03-02T03:36:52.863Z,11.60
2019-03-02T03:37:52.937Z,10.80
2019-03-02T03:38:53.163Z,11.10
2019-03-02T03:39:53.367Z,11.10
2019-03-02T03:40:53.597Z,10.90
2019-03-02T03:41:53.685Z,11.30
2019-03-02T03:43:02.439Z,11.20
2019-03-02T03:43:54.127Z,11.20
2019-03-02T03:44:54.206Z,11.10
2019-03-02T03:45:54.472Z,11.00
2019-03-02T03:46:56.076Z,12.30
2019-03-02T03:47:54.769Z,11.00
2019-03-02T03:48:56.415Z,11.20
2019-03-02T03:49:55.185Z,10.60
2019-03-02T03:50:55.390Z,11.00
2019-03-02T03:51:55.583Z,10.30
2019-03-02T03:52:55.812Z,10.90
2019-03-02T03:53:55.877Z,11.20
2019-03-02T03:54:56.085Z,11.10
2019-03-02T03:56:03.431Z,11.10
2019-03-02T03:56:56.538Z,11.30
2019-03-02T03:58:00.535Z,11.50
2019-03-02T03:58:56.798Z,11.00
2019-03-02T03:59:58.741Z,10.30
2019-03-02T04:00:57.106Z,11.00
2019-03-02T04:01:58.446Z,10.70
2019-03-02T04:02:57.537Z,10.90
2019-03-02T04:03:57.758Z,11.30
2019-03-02T04:04:57.949Z,10.90
2019-03-02T04:05:58.174Z,11.30
2019-03-02T04:07:01.398Z,10.70
2019-03-02T04:07:58.460Z,11.00
2019-03-02T04:09:03.145Z,11.20
2019-03-02T04:10:01.366Z,11.20
2019-03-02T04:11:04.545Z,11.90
2019-03-02T04:12:00.715Z,11.10
2019-03-02T04:13:05.016Z,10.20
2019-03-02T04:14:00.116Z,10.60
2019-03-02T04:15:01.413Z,10.90
2019-03-02T04:15:59.786Z,11.10
2019-03-02T04:17:00.593Z,11.10
2019-03-02T04:18:00.149Z,11.40
2019-03-02T04:19:00.245Z,12.30
2019-03-02T04:20:00.454Z,11.80
2019-03-02T04:21:00.533Z,11.50
2019-03-02T04:22:02.058Z,11.80
2019-03-02T04:23:00.970Z,11.30
2019-03-02T04:24:03.069Z,11.40
2019-03-02T04:25:01.290Z,12.50
2019-03-02T04:26:01.356Z,12.00
2019-03-02T04:27:01.595Z,12.80
2019-03-02T04:28:01.744Z,12.50
2019-03-02T04:29:08.933Z,12.10
2019-03-02T04:30:01.958Z,11.90
2019-03-02T04:31:04.603Z,12.80
2019-03-02T04:32:02.367Z,12.60
2019-03-02T04:33:06.008Z,13.50
2019-03-02T04:34:02.675Z,12.90
2019-03-02T04:35:02.880Z,12.10
2019-03-02T04:36:09.589Z,12.80
2019-03-02T04:37:03.195Z,13.20
2019-03-02T04:38:03.426Z,12.70
2019-03-02T04:39:03.534Z,13.30
2019-03-02T04:40:03.669Z,12.40
2019-03-02T04:41:04.126Z,13.40
2019-03-02T04:42:03.944Z,14.30
2019-03-02T04:43:04.160Z,13.10
2019-03-02T04:44:04.359Z,12.90
2019-03-02T04:45:05.011Z,13.00
2019-03-02T04:46:04.753Z,12.70
2019-03-02T04:47:05.015Z,12.90
2019-03-02T04:48:05.119Z,12.90
2019-03-02T04:49:05.228Z,13.80
2019-03-02T04:50:05.311Z,13.70
2019-03-02T04:51:05.483Z,13.60
2019-03-02T04:52:05.648Z,14.10
2019-03-02T04:53:05.814Z,13.80
2019-03-02T04:54:05.989Z,14.30
2019-03-02T04:55:09.529Z,12.70
2019-03-02T04:56:06.319Z,13.50
2019-03-02T04:57:06.500Z,13.90
2019-03-02T04:58:08.598Z,13.90
2019-03-02T04:59:06.851Z,14.00
2019-03-02T05:00:07.018Z,13.50
2019-03-02T05:01:07.848Z,13.00
2019-03-02T05:02:07.370Z,13.40
2019-03-02T05:03:07.550Z,14.30
2019-03-02T05:04:07.742Z,13.00
2019-03-02T05:05:08.369Z,13.90
2019-03-02T05:06:08.079Z,13.30
2019-03-02T05:07:08.249Z,12.90
2019-03-02T05:08:08.428Z,14.10
2019-03-02T05:09:08.590Z,14.00
2019-03-02T05:10:08.773Z,14.00
2019-03-02T05:11:08.955Z,14.60
2019-03-02T05:12:11.624Z,13.90
2019-03-02T05:13:09.312Z,14.50
2019-03-02T05:14:09.495Z,13.60
2019-03-02T05:15:12.108Z,13.30
2019-03-02T05:16:09.845Z,13.80
2019-03-02T05:17:10.007Z,14.60
2019-03-02T05:18:10.177Z,13.90
2019-03-02T05:19:10.361Z,13.10
2019-03-02T05:20:10.516Z,13.90
2019-03-02T05:21:10.697Z,13.60
2019-03-02T05:22:10.856Z,13.40
2019-03-02T05:23:11.025Z,14.00
2019-03-02T05:24:11.186Z,14.10
2019-03-02T05:25:11.357Z,13.00
2019-03-02T05:26:11.520Z,14.20
2019-03-02T05:27:11.694Z,14.30
2019-03-02T05:28:11.852Z,13.10
2019-03-02T05:29:14.775Z,14.30
2019-03-02T05:30:12.190Z,14.60
2019-03-02T05:31:13.831Z,13.30
2019-03-02T05:32:15.786Z,14.80
2019-03-02T05:33:12.721Z,13.10
2019-03-02T05:34:12.900Z,13.90
2019-03-02T05:35:15.394Z,14.30
2019-03-02T05:36:13.237Z,14.10
2019-03-02T05:37:13.402Z,13.90
2019-03-02T05:38:15.237Z,14.40
2019-03-02T05:39:17.034Z,14.60
2019-03-02T05:40:13.918Z,13.90
2019-03-02T05:41:14.100Z,14.80
2019-03-02T05:42:14.599Z,15.00
2019-03-02T05:43:14.436Z,14.30
2019-03-02T05:44:14.617Z,14.90
2019-03-02T05:45:14.791Z,13.50
2019-03-02T05:46:14.969Z,14.50
2019-03-02T05:47:15.164Z,14.30
2019-03-02T05:48:15.327Z,13.70
2019-03-02T05:49:15.747Z,13.90
2019-03-02T05:50:15.675Z,13.30
2019-03-02T05:51:15.846Z,14.20
2019-03-02T05:52:17.802Z,13.90
2019-03-02T05:53:16.197Z,14.50
2019-03-02T05:54:16.361Z,13.80
2019-03-02T05:55:18.065Z,14.20
2019-03-02T05:56:16.697Z,13.30
2019-03-02T05:57:16.864Z,14.00
2019-03-02T05:58:17.201Z,13.90
2019-03-02T05:59:17.208Z,13.60
2019-03-02T06:00:17.377Z,13.70
2019-03-02T06:01:17.560Z,13.90
2019-03-02T06:02:18.239Z,13.60
2019-03-02T06:03:18.818Z,13.70
2019-03-02T06:04:18.860Z,14.80
2019-03-02T06:05:18.229Z,14.70
2019-03-02T06:06:18.402Z,13.40
2019-03-02T06:07:18.571Z,14.80
2019-03-02T06:08:20.909Z,14.70
2019-03-02T06:09:20.734Z,15.20
2019-03-02T06:10:21.644Z,14.60
2019-03-02T06:11:20.692Z,15.20
2019-03-02T06:12:20.234Z,15.50
2019-03-02T06:13:20.023Z,15.50
2019-03-02T06:14:19.811Z,14.90
2019-03-02T06:15:20.001Z,15.20
2019-03-02T06:16:21.882Z,15.10
2019-03-02T06:17:20.345Z,14.90
2019-03-02T06:18:20.520Z,15.80
2019-03-02T06:19:23.392Z,15.50
2019-03-02T06:20:20.860Z,16.00
2019-03-02T06:21:21.030Z,15.80
2019-03-02T06:22:21.904Z,16.60
2019-03-02T06:23:21.380Z,16.20
2019-03-02T06:24:22.410Z,15.70
2019-03-02T06:25:23.120Z,16.50
2019-03-02T06:26:22.581Z,16.10
2019-03-02T06:27:22.020Z,16.50
2019-03-02T06:28:23.020Z,17.50
2019-03-02T06:29:24.285Z,18.70
2019-03-02T06:30:22.532Z,19.00
2019-03-02T06:31:22.550Z,18.70
2019-03-02T06:32:25.916Z,18.80
2019-03-02T06:33:22.899Z,19.20
2019-03-02T06:34:23.074Z,18.20
2019-03-02T06:35:23.245Z,17.80
2019-03-02T06:36:23.412Z,17.40
2019-03-02T06:37:23.583Z,18.50
2019-03-02T06:38:23.756Z,18.00
2019-03-02T06:39:23.935Z,17.90
2019-03-02T06:40:24.106Z,18.30
2019-03-02T06:41:24.282Z,18.60
2019-03-02T06:42:24.468Z,18.50
2019-03-02T06:43:24.630Z,17.60
2019-03-02T06:44:24.810Z,18.00
2019-03-02T06:45:24.986Z,17.30
2019-03-02T06:46:25.167Z,18.20
2019-03-02T06:47:25.385Z,17.40
2019-03-02T06:48:25.511Z,17.70
2019-03-02T06:49:25.679Z,18.60
2019-03-02T06:50:26.097Z,18.60
2019-03-02T06:51:25.976Z,18.00
2019-03-02T06:52:26.273Z,18.60
2019-03-02T06:53:26.328Z,19.00
2019-03-02T06:54:26.489Z,18.30
2019-03-02T06:55:26.673Z,18.10
2019-03-02T06:56:26.858Z,18.80
2019-03-02T06:57:27.020Z,19.50
2019-03-02T06:58:29.384Z,19.70
2019-03-02T06:59:27.399Z,20.10
2019-03-02T07:00:27.781Z,19.30
2019-03-02T07:01:27.731Z,19.80
2019-03-02T07:02:27.885Z,19.80
2019-03-02T07:03:28.048Z,20.10
2019-03-02T07:04:28.216Z,20.80
2019-03-02T07:05:29.849Z,19.40
2019-03-02T07:06:28.598Z,19.30
2019-03-02T07:07:28.749Z,19.50
2019-03-02T07:08:29.518Z,20.10
2019-03-02T07:09:29.085Z,20.70
2019-03-02T07:10:29.313Z,22.30
2019-03-02T07:11:29.898Z,20.90
2019-03-02T07:12:29.611Z,20.80
2019-03-02T07:13:29.784Z,21.50
2019-03-02T07:14:32.321Z,20.90
2019-03-02T07:15:30.130Z,21.90
2019-03-02T07:16:30.312Z,20.60
2019-03-02T07:17:30.887Z,21.70
2019-03-02T07:18:30.668Z,22.10
2019-03-02T07:19:32.788Z,22.30
2019-03-02T07:20:31.031Z,21.80
2019-03-02T07:21:31.196Z,22.20
2019-03-02T07:22:31.359Z,22.30
2019-03-02T07:23:31.518Z,21.20
2019-03-02T07:24:31.689Z,21.90
2019-03-02T07:25:31.859Z,22.70
2019-03-02T07:26:32.022Z,21.10
2019-03-02T07:27:32.194Z,23.00
2019-03-02T07:28:32.367Z,21.40
2019-03-02T07:29:32.559Z,22.00
2019-03-02T07:30:32.732Z,23.10
2019-03-02T07:31:32.889Z,22.50
2019-03-02T07:32:33.066Z,23.80
2019-03-02T07:33:33.231Z,23.40
2019-03-02T07:34:33.396Z,22.00
2019-03-02T07:35:33.555Z,22.70
2019-03-02T07:36:34.245Z,23.20
2019-03-02T07:37:35.345Z,23.60
2019-03-02T07:38:34.067Z,23.70
2019-03-02T07:39:36.446Z,24.00
2019-03-02T07:40:34.401Z,23.00
2019-03-02T07:41:34.613Z,24.30
2019-03-02T07:42:34.913Z,23.90
2019-03-02T07:43:34.952Z,24.30
2019-03-02T07:44:35.139Z,22.60
2019-03-02T07:45:36.719Z,23.20
2019-03-02T07:46:35.480Z,23.00
2019-03-02T07:47:35.721Z,24.90
2019-03-02T07:48:36.812Z,23.60
2019-03-02T07:49:35.995Z,23.60
2019-03-02T07:50:36.176Z,23.00
2019-03-02T07:51:37.869Z,24.50
2019-03-02T07:52:36.500Z,23.10
2019-03-02T07:53:36.677Z,23.90
2019-03-02T07:54:38.773Z,23.50
2019-03-02T07:55:37.011Z,22.50
2019-03-02T07:56:37.178Z,23.30
2019-03-02T07:57:40.628Z,22.40
2019-03-02T07:58:37.496Z,21.90
2019-03-02T07:59:37.658Z,23.60
2019-03-02T08:00:40.720Z,22.90
2019-03-02T08:01:37.996Z,22.70
2019-03-02T08:02:38.158Z,22.80
2019-03-02T08:03:38.316Z,23.90
2019-03-02T08:04:39.772Z,23.90
2019-03-02T08:05:38.648Z,24.40
2019-03-02T08:06:38.815Z,23.30
2019-03-02T08:07:39.332Z,22.90
2019-03-02T08:08:39.157Z,23.10
2019-03-02T08:09:39.333Z,23.50
2019-03-02T08:10:39.863Z,23.00
2019-03-02T08:11:39.705Z,22.00
2019-03-02T08:12:39.880Z,21.60
2019-03-02T08:13:40.057Z,23.10
2019-03-02T08:14:40.230Z,24.30
2019-03-02T08:15:40.417Z,22.50
2019-03-02T08:16:40.606Z,22.50
2019-03-02T08:17:40.801Z,22.80
2019-03-02T08:18:40.999Z,22.40
2019-03-02T08:19:41.151Z,22.70
2019-03-02T08:20:41.480Z,22.60
2019-03-02T08:21:41.487Z,22.20
2019-03-02T08:22:42.700Z,21.70
2019-03-02T08:23:42.116Z,21.20
2019-03-02T08:24:43.753Z,21.90
2019-03-02T08:25:42.293Z,22.00
2019-03-02T08:26:42.738Z,21.60
2019-03-02T08:27:42.454Z,21.80
2019-03-02T08:28:45.798Z,22.10
2019-03-02T08:29:44.065Z,20.90
2019-03-02T08:30:43.332Z,21.20
2019-03-02T08:31:45.630Z,19.90
2019-03-02T08:32:43.366Z,20.50
2019-03-02T08:33:46.105Z,19.30
2019-03-02T08:34:46.413Z,19.40
2019-03-02T08:35:43.921Z,19.70
2019-03-02T08:36:44.134Z,18.70
2019-03-02T08:37:44.410Z,19.60
2019-03-02T08:38:44.518Z,19.60
2019-03-02T08:39:46.549Z,18.80
2019-03-02T08:40:44.837Z,19.00
2019-03-02T08:41:45.346Z,18.50
2019-03-02T08:42:45.048Z,18.50
2019-03-02T08:43:45.636Z,18.70
2019-03-02T08:44:45.409Z,19.10
2019-03-02T08:45:45.563Z,18.90
2019-03-02T08:46:45.798Z,18.40
2019-03-02T08:47:45.853Z,18.00
2019-03-02T08:48:46.050Z,18.60
2019-03-02T08:49:46.236Z,18.30
2019-03-02T08:50:46.411Z,18.70
2019-03-02T08:51:46.585Z,18.10
2019-03-02T08:52:46.756Z,17.70
2019-03-02T08:53:46.944Z,18.10
2019-03-02T08:54:47.176Z,17.80
2019-03-02T08:55:47.310Z,18.10
2019-03-02T08:56:47.641Z,18.40
2019-03-02T08:57:47.674Z,17.70
2019-03-02T08:58:47.924Z,18.30
2019-03-02T08:59:48.037Z,17.10
2019-03-02T09:00:48.238Z,17.30
2019-03-02T09:01:51.424Z,18.00
2019-03-02T09:02:48.622Z,16.20
2019-03-02T09:03:48.785Z,16.90
2019-03-02T09:04:50.798Z,17.90
2019-03-02T09:05:51.661Z,16.30
2019-03-02T09:06:49.329Z,16.90
2019-03-02T09:07:49.507Z,16.50
2019-03-02T09:08:49.704Z,15.90
2019-03-02T09:09:49.917Z,16.00
2019-03-02T09:10:50.369Z,16.90
2019-03-02T09:11:50.936Z,17.30
2019-03-02T09:12:50.501Z,16.80
2019-03-02T09:13:50.676Z,16.00
2019-03-02T09:14:50.860Z,16.20
2019-03-02T09:15:52.648Z,16.20
2019-03-02T09:16:52.172Z,16.10
2019-03-02T09:17:54.193Z,16.60
2019-03-02T09:18:52.480Z,15.10
2019-03-02T09:19:55.694Z,15.90
2019-03-02T09:20:52.731Z,16.40
2019-03-02T09:21:52.189Z,17.10
2019-03-02T09:22:56.462Z,17.70
2019-03-02T09:23:52.563Z,17.60
2019-03-02T09:24:54.606Z,17.70
2019-03-02T09:25:53.998Z,17.00
2019-03-02T09:26:53.052Z,16.30
2019-03-02T09:27:54.747Z,15.90
2019-03-02T09:28:56.092Z,15.20
2019-03-02T09:29:55.748Z,15.90
2019-03-02T09:30:53.751Z,15.90
2019-03-02T09:31:53.917Z,15.80
2019-03-02T09:32:54.099Z,15.50
2019-03-02T09:33:54.280Z,14.90
2019-03-02T09:34:54.561Z,16.00
2019-03-02T09:35:55.593Z,16.40
2019-03-02T09:36:54.758Z,15.70
2019-03-02T09:37:54.943Z,16.10
2019-03-02T09:38:57.430Z,15.90
2019-03-02T09:39:55.307Z,16.60
2019-03-02T09:40:55.495Z,15.50
2019-03-02T09:41:58.100Z,15.00
2019-03-02T09:42:56.394Z,14.40
2019-03-02T09:44:00.965Z,14.30
2019-03-02T09:44:56.168Z,15.10
2019-03-02T09:45:56.340Z,14.40
2019-03-02T09:46:56.515Z,15.10
2019-03-02T09:47:56.701Z,14.90
2019-03-02T09:49:00.403Z,14.60
2019-03-02T09:49:57.086Z,15.00
2019-03-02T09:50:57.276Z,14.50
2019-03-02T09:51:57.456Z,13.80
2019-03-02T09:52:57.622Z,14.80
2019-03-02T09:53:57.810Z,14.40
2019-03-02T09:54:57.996Z,14.40
2019-03-02T09:55:58.570Z,14.90
2019-03-02T09:56:58.336Z,13.90
2019-03-02T09:57:58.522Z,13.10
2019-03-02T09:59:01.595Z,13.80
2019-03-02T09:59:58.904Z,12.80
2019-03-02T10:01:01.195Z,12.40
2019-03-02T10:01:59.252Z,12.70
2019-03-02T10:02:59.421Z,12.30
2019-03-02T10:04:03.091Z,11.90
2019-03-02T10:04:59.764Z,12.70
2019-03-02T10:05:59.941Z,12.70
2019-03-02T10:07:02.014Z,12.80
2019-03-02T10:08:00.302Z,12.70
2019-03-02T10:09:00.498Z,12.10
2019-03-02T10:10:04.687Z,12.10
2019-03-02T10:11:02.623Z,12.40
2019-03-02T10:12:01.066Z,11.50
2019-03-02T10:13:01.235Z,11.90
2019-03-02T10:14:01.409Z,12.30
2019-03-02T10:15:02.253Z,12.00
2019-03-02T10:16:04.468Z,12.60
2019-03-02T10:17:01.940Z,11.40
2019-03-02T10:18:02.116Z,12.00
2019-03-02T10:19:02.295Z,12.20
2019-03-02T10:20:05.144Z,12.90
2019-03-02T10:21:02.677Z,12.00
2019-03-02T10:22:02.833Z,12.70
2019-03-02T10:23:05.529Z,12.20
2019-03-02T10:24:03.186Z,11.50
2019-03-02T10:25:03.367Z,11.60
2019-03-02T10:26:03.881Z,11.70
2019-03-02T10:27:05.893Z,11.40
2019-03-02T10:28:04.939Z,12.00
2019-03-02T10:29:06.808Z,11.40
2019-03-02T10:30:04.244Z,11.30
2019-03-02T10:31:06.085Z,11.10
2019-03-02T10:32:04.627Z,11.10
2019-03-02T10:33:04.828Z,11.20
2019-03-02T10:34:06.347Z,12.30
2019-03-02T10:35:05.171Z,11.50
2019-03-02T10:36:05.387Z,10.80
2019-03-02T10:37:07.236Z,11.90
2019-03-02T10:38:05.678Z,11.50
2019-03-02T10:39:05.851Z,10.80
2019-03-02T10:40:08.856Z,11.30
2019-03-02T10:41:07.375Z,11.30
2019-03-02T10:42:06.339Z,11.10
2019-03-02T10:43:07.489Z,11.60
2019-03-02T10:44:06.703Z,11.60
2019-03-02T10:45:06.847Z,11.20
2019-03-02T10:46:07.028Z,11.10
2019-03-02T10:47:07.195Z,11.70
2019-03-02T10:48:07.364Z,11.50
2019-03-02T10:49:10.158Z,11.60
2019-03-02T10:50:07.707Z,11.30
2019-03-02T10:51:07.897Z,10.80
2019-03-02T10:52:09.710Z,10.90
2019-03-02T10:53:08.269Z,11.50
2019-03-02T10:54:08.430Z,11.90
2019-03-02T10:55:12.315Z,11.60
2019-03-02T10:56:08.780Z,11.20
2019-03-02T10:57:08.942Z,11.60
2019-03-02T10:58:10.362Z,11.50
2019-03-02T10:59:11.966Z,11.60
2019-03-02T11:00:09.445Z,11.40
2019-03-02T11:01:09.612Z,11.50
2019-03-02T11:02:09.775Z,11.50
2019-03-02T11:03:11.230Z,11.70
2019-03-02T11:04:10.107Z,11.00
2019-03-02T11:05:10.277Z,10.50
2019-03-02T11:06:10.451Z,11.30
2019-03-02T11:07:12.860Z,11.70
2019-03-02T11:08:10.785Z,11.70
2019-03-02T11:09:15.736Z,10.40
2019-03-02T11:10:12.959Z,10.00
2019-03-02T11:11:11.300Z,11.50
2019-03-02T11:12:11.464Z,10.90
2019-03-02T11:13:11.628Z,11.60
2019-03-02T11:14:11.795Z,10.80
2019-03-02T11:15:11.975Z,11.20
2019-03-02T11:16:12.685Z,11.10
2019-03-02T11:17:12.309Z,11.00
2019-03-02T11:18:12.479Z,10.80
2019-03-02T11:19:12.974Z,10.60
2019-03-02T11:20:12.830Z,11.00
2019-03-02T11:21:13.034Z,10.50
2019-03-02T11:22:15.145Z,10.70
2019-03-02T11:23:15.817Z,11.00
2019-03-02T11:24:13.535Z,11.30
2019-03-02T11:25:13.700Z,11.40
2019-03-02T11:26:13.873Z,11.30
2019-03-02T11:27:14.091Z,11.60
2019-03-02T11:28:14.193Z,12.50
2019-03-02T11:29:17.786Z,12.10
2019-03-02T11:30:14.519Z,11.90
2019-03-02T11:31:14.723Z,12.20
2019-03-02T11:32:16.814Z,12.50
2019-03-02T11:33:15.056Z,11.80
2019-03-02T11:34:15.229Z,12.70
2019-03-02T11:35:15.389Z,12.40
2019-03-02T11:36:15.558Z,12.00
2019-03-02T11:37:15.722Z,12.20
2019-03-02T11:38:15.889Z,12.70
2019-03-02T11:39:17.359Z,12.60
2019-03-02T11:40:16.247Z,13.20
2019-03-02T11:41:16.418Z,13.00
2019-03-02T11:42:16.584Z,12.40
2019-03-02T11:43:17.239Z,12.90
2019-03-02T11:44:19.973Z,12.50
2019-03-02T11:45:17.075Z,12.60
2019-03-02T11:46:17.240Z,12.70
2019-03-02T11:47:17.420Z,12.00
2019-03-02T11:48:19.468Z,13.70
2019-03-02T11:49:17.791Z,13.00
2019-03-02T11:50:17.955Z,12.90
2019-03-02T11:51:18.718Z,13.50
2019-03-02T11:52:18.393Z,12.70
2019-03-02T11:53:18.454Z,12.20
2019-03-02T11:54:18.618Z,12.70
2019-03-02T11:55:18.790Z,13.30
2019-03-02T11:56:25.995Z,13.80
2019-03-02T11:57:21.198Z,12.90
2019-03-02T11:58:19.297Z,13.30
2019-03-02T11:59:19.466Z,13.20
2019-03-02T12:00:21.457Z,13.30
2019-03-02T12:01:19.802Z,13.90
2019-03-02T12:02:23.707Z,13.80
2019-03-02T12:03:20.137Z,13.10
2019-03-02T12:04:20.302Z,14.30
2019-03-02T12:05:20.472Z,13.70
2019-03-02T12:06:20.651Z,13.50
2019-03-02T12:07:20.822Z,14.80
2019-03-02T12:08:22.133Z,12.90
2019-03-02T12:09:21.172Z,14.20
2019-03-02T12:10:21.351Z,14.80
2019-03-02T12:11:21.507Z,13.90
2019-03-02T12:12:21.674Z,14.40
2019-03-02T12:13:21.850Z,13.50
2019-03-02T12:14:22.029Z,14.70
2019-03-02T12:15:22.198Z,15.10
2019-03-02T12:16:26.370Z,13.80
2019-03-02T12:17:22.528Z,15.30
2019-03-02T12:18:22.690Z,14.60
2019-03-02T12:19:26.201Z,14.90
2019-03-02T12:20:23.039Z,14.20
2019-03-02T12:21:23.204Z,14.20
2019-03-02T12:22:23.386Z,14.70
2019-03-02T12:23:24.756Z,14.50
2019-03-02T12:24:23.729Z,14.90
2019-03-02T12:25:23.900Z,14.40
2019-03-02T12:26:24.128Z,15.20
2019-03-02T12:27:24.249Z,13.90
2019-03-02T12:28:24.425Z,14.80
2019-03-02T12:29:24.595Z,14.60
2019-03-02T12:30:26.135Z,15.20
2019-03-02T12:31:28.079Z,15.20
2019-03-02T12:32:25.135Z,14.80
2019-03-02T12:33:25.309Z,13.80
2019-03-02T12:34:25.475Z,14.40
2019-03-02T12:35:25.653Z,15.20
2019-03-02T12:36:25.826Z,15.40
2019-03-02T12:37:28.570Z,15.30
2019-03-02T12:38:26.173Z,15.50
2019-03-02T12:39:26.399Z,15.20
2019-03-02T12:40:26.562Z,15.50
2019-03-02T12:41:26.691Z,15.50
2019-03-02T12:42:30.438Z,15.00
2019-03-02T12:43:27.050Z,14.80
2019-03-02T12:44:27.237Z,15.10
2019-03-02T12:45:30.011Z,14.80
2019-03-02T12:46:27.593Z,15.20
2019-03-02T12:47:29.903Z,15.30
2019-03-02T12:48:29.326Z,15.30
2019-03-02T12:49:28.212Z,15.70
2019-03-02T12:50:28.396Z,14.90
2019-03-02T12:51:28.558Z,15.10
2019-03-02T12:52:28.736Z,15.90
2019-03-02T12:53:29.958Z,15.70
2019-03-02T12:54:29.023Z,15.40